Time;durP1;ratioP1;P1;durP2;ratioP2;P2;SDS_P1;SDS_P2;PMS_P1;PMS_P2;Temp;Humidity;BMP_temperature;BMP_pressure;BME280_temperature;BME280_humidity;BME280_pressure;Samples;Min_cycle;Max_cycle;Signal;HPM_P1;HPM_P2
2021/03/01 12:56:50;;;;;;;11.30;7.38;;;22.80;46.50;;;;;;5070253;27;20325;-79
2021/03/01 12:59:15;;;;;;;9.77;7.05;;;22.50;45.90;;;;;;5064098;28;20083;-78
2021/03/01 13:01:41;;;;;;;11.25;6.60;;;22.20;44.90;;;;;;5041953;28;20037;-76
2021/03/01 13:04:07;;;;;;;9.75;6.50;;;22.00;46.10;;;;;;5043916;28;20071;-75
2021/03/01 13:06:32;;;;;;;9.82;6.80;;;22.10;46.50;;;;;;5065505;28;20040;-79
2021/03/01 13:08:58;;;;;;;11.32;7.38;;;22.40;45.90;;;;;;5066617;28;20088;-79
2021/03/01 13:11:24;;;;;;;10.73;6.97;;;22.20;45.80;;;;;;5065334;28;20033;-79
2021/03/01 13:13:49;;;;;;;9.40;7.05;;;22.50;46.00;;;;;;5065818;28;20107;-77
2021/03/01 13:16:15;;;;;;;13.02;7.38;;;22.20;45.70;;;;;;5065662;28;20084;-79
2021/03/01 13:18:41;;;;;;;9.40;6.20;;;22.90;46.30;;;;;;5064441;28;20036;-79
2021/03/01 13:21:09;;;;;;;9.80;7.38;;;22.50;44.90;;;;;;5062949;28;20021;-74
2021/03/01 13:23:35;;;;;;;9.25;6.50;;;21.90;45.60;;;;;;5064369;28;20033;-79
2021/03/01 13:26:01;;;;;;;9.48;6.22;;;21.90;46.00;;;;;;5065702;27;20029;-79
2021/03/01 13:28:27;;;;;;;9.45;6.57;;;22.00;46.30;;;;;;5044178;28;20037;-79
2021/03/01 13:30:53;;;;;;;9.70;7.07;;;22.00;45.80;;;;;;5054151;28;20485;-76
2021/03/01 13:33:22;;;;;;;10.35;6.60;;;22.00;45.80;;;;;;5052366;28;20525;-79
2021/03/01 13:35:48;;;;;;;10.65;6.45;;;21.50;47.10;;;;;;5056782;28;20025;-79
2021/03/01 13:38:13;;;;;;;10.35;7.32;;;21.50;46.50;;;;;;5062392;28;20144;-74
2021/03/01 13:40:39;;;;;;;10.23;6.90;;;21.20;47.20;;;;;;5058500;28;20101;-78
2021/03/01 13:43:05;;;;;;;10.48;7.00;;;21.40;46.00;;;;;;5059476;28;20048;-77
2021/03/01 13:45:30;;;;;;;11.57;7.13;;;21.60;46.70;;;;;;5044791;28;20048;-76
2021/03/01 13:47:56;;;;;;;14.13;7.30;;;21.40;46.20;;;;;;5060512;27;20044;-79
2021/03/01 13:50:22;;;;;;;9.20;6.45;;;20.90;47.80;;;;;;5060414;28;20025;-74
2021/03/01 13:52:48;;;;;;;8.93;6.60;;;21.00;48.50;;;;;;5052833;28;20036;-75
2021/03/01 13:55:14;;;;;;;11.15;7.38;;;20.90;48.30;;;;;;5035902;28;20026;-76
2021/03/01 13:57:40;;;;;;;9.65;7.15;;;20.80;47.50;;;;;;5054952;28;20143;-74
2021/03/01 14:00:08;;;;;;;13.27;7.20;;;20.50;48.00;;;;;;5056204;28;20029;-74
2021/03/01 14:02:34;;;;;;;9.48;7.22;;;22.00;48.90;;;;;;5053480;28;20017;-73
2021/03/01 14:04:59;;;;;;;11.43;7.22;;;20.20;48.50;;;;;;5056060;28;20059;-74
2021/03/01 14:07:25;;;;;;;10.98;7.80;;;20.10;48.80;;;;;;5052171;27;20112;-73
2021/03/01 14:09:51;;;;;;;12.25;7.65;;;20.10;48.40;;;;;;5045441;28;20025;-74
2021/03/01 14:12:17;;;;;;;11.25;6.90;;;20.20;48.50;;;;;;5044700;28;20026;-74
2021/03/01 14:14:42;;;;;;;8.93;6.70;;;20.10;49.20;;;;;;5039734;28;20064;-74
2021/03/01 14:17:08;;;;;;;13.73;7.85;;;20.70;48.70;;;;;;5045235;28;20736;-73
2021/03/01 14:19:34;;;;;;;11.30;7.47;;;20.40;48.80;;;;;;5048368;28;20025;-73
2021/03/01 14:22:00;;;;;;;14.15;8.38;;;20.40;49.00;;;;;;5043496;28;20040;-74
2021/03/01 14:24:26;;;;;;;9.13;6.65;;;20.40;48.70;;;;;;5048322;28;20112;-75
2021/03/01 14:26:51;;;;;;;12.48;8.25;;;20.10;48.90;;;;;;5045779;28;20505;-75
2021/03/01 14:29:17;;;;;;;14.57;8.52;;;20.50;49.00;;;;;;5038880;28;20450;-75
2021/03/01 14:31:43;;;;;;;12.98;7.38;;;20.90;48.70;;;;;;5040404;28;20017;-75
2021/03/01 14:34:10;;;;;;;12.55;7.47;;;21.20;48.00;;;;;;5048857;28;20025;-75
2021/03/01 14:36:36;;;;;;;11.38;7.03;;;21.50;47.70;;;;;;5041084;28;20112;-73
2021/03/01 14:39:03;;;;;;;12.77;7.30;;;21.60;47.60;;;;;;5044680;28;20033;-73
2021/03/01 14:41:29;;;;;;;15.35;7.88;;;21.90;47.00;;;;;;5044460;28;20013;-73
2021/03/01 14:43:55;;;;;;;16.02;6.95;;;22.20;47.10;;;;;;5043657;28;20029;-73
2021/03/01 14:46:21;;;;;;;12.80;7.35;;;22.20;46.40;;;;;;5045150;28;20030;-73
2021/03/01 14:48:46;;;;;;;11.02;7.32;;;22.50;46.10;;;;;;5044666;28;20485;-74
2021/03/01 14:51:12;;;;;;;8.77;6.82;;;22.20;46.50;;;;;;5048873;28;20033;-74
2021/03/01 14:53:37;;;;;;;10.52;7.47;;;21.70;47.10;;;;;;5051164;28;20032;-74
2021/03/01 14:56:03;;;;;;;10.07;7.07;;;22.00;46.90;;;;;;5045115;28;20044;-74
2021/03/01 14:58:29;;;;;;;11.77;7.05;;;22.30;46.70;;;;;;5048095;28;20032;-73
2021/03/01 15:00:57;;;;;;;12.15;8.38;;;22.20;46.30;;;;;;5051809;28;20100;-74
2021/03/01 15:03:22;;;;;;;9.25;7.60;;;22.00;46.60;;;;;;5047978;28;20037;-74
2021/03/01 15:05:52;;;;;;;10.27;7.10;;;22.20;46.20;;;;;;5045015;28;20599;-73
2021/03/01 15:08:20;;;;;;;12.23;7.63;;;22.10;46.60;;;;;;5047411;28;20025;-73
2021/03/01 15:10:46;;;;;;;9.10;6.57;;;22.10;46.10;;;;;;5049035;28;20109;-76
2021/03/01 15:13:11;;;;;;;10.60;6.63;;;22.40;46.00;;;;;;5049622;28;20029;-77
2021/03/01 15:15:37;;;;;;;9.20;5.93;;;23.00;45.60;;;;;;5039600;28;20489;-82
2021/03/01 15:18:03;;;;;;;11.48;6.32;;;22.70;45.70;;;;;;5039114;28;20033;-76
2021/03/01 15:20:28;;;;;;;12.05;6.95;;;23.00;44.80;;;;;;5050351;28;20047;-77
2021/03/01 15:22:54;;;;;;;13.90;7.55;;;23.10;44.80;;;;;;5046617;28;20029;-78
2021/03/01 15:25:19;;;;;;;8.70;6.22;;;22.60;45.60;;;;;;5048656;28;20024;-76
2021/03/01 15:27:45;;;;;;;8.52;6.07;;;22.70;45.40;;;;;;5048757;28;20389;-77
2021/03/01 15:30:12;;;;;;;10.15;6.28;;;22.80;45.20;;;;;;5049611;28;20101;-77
2021/03/01 15:32:38;;;;;;;9.93;6.35;;;22.30;45.40;;;;;;5047061;28;20035;-77
2021/03/01 15:35:05;;;;;;;9.75;5.60;;;22.40;45.70;;;;;;5043411;28;20116;-77
2021/03/01 15:37:31;;;;;;;7.90;5.78;;;22.50;45.20;;;;;;5042162;28;20098;-80
2021/03/01 15:39:56;;;;;;;15.45;6.40;;;22.60;45.20;;;;;;5052422;28;20196;-77
2021/03/01 15:42:22;;;;;;;8.95;6.28;;;22.10;45.40;;;;;;5046536;28;20029;-76
2021/03/01 15:44:48;;;;;;;8.27;6.13;;;21.90;45.80;;;;;;5045535;28;20388;-80
2021/03/01 15:47:15;;;;;;;10.02;6.63;;;21.10;45.20;;;;;;5039087;27;20025;-77
2021/03/01 15:49:41;;;;;;;7.53;5.88;;;21.70;46.50;;;;;;5054767;28;20507;-78
2021/03/01 15:52:07;;;;;;;8.05;5.80;;;21.70;46.70;;;;;;5047092;28;20109;-77
2021/03/01 15:54:32;;;;;;;11.52;5.85;;;21.50;46.70;;;;;;5046902;28;20121;-76
2021/03/01 15:56:58;;;;;;;12.50;5.97;;;21.60;46.50;;;;;;5052644;28;20104;-76
2021/03/01 15:59:23;;;;;;;12.15;6.25;;;21.70;46.40;;;;;;5053887;28;20025;-76
2021/03/01 16:01:49;;;;;;;8.15;6.00;;;21.80;46.50;;;;;;5051359;28;20393;-76
2021/03/01 16:04:14;;;;;;;8.90;5.60;;;22.00;45.60;;;;;;5050424;28;20096;-77
2021/03/01 16:06:40;;;;;;;9.15;5.45;;;21.70;46.30;;;;;;5049142;28;20033;-78
2021/03/01 16:09:06;;;;;;;7.78;5.22;;;21.10;46.60;;;;;;5053570;28;20354;-78
2021/03/01 16:11:32;;;;;;;10.10;5.80;;;20.90;47.00;;;;;;5062837;28;20093;-77
2021/03/01 16:13:58;;;;;;;7.53;5.63;;;21.00;47.30;;;;;;5054650;28;20047;-77
2021/03/01 16:16:24;;;;;;;9.23;5.47;;;20.70;47.20;;;;;;5043451;28;20030;-77
2021/03/01 16:18:51;;;;;;;10.25;5.72;;;20.60;47.60;;;;;;5049219;27;20036;-76
2021/03/01 16:21:18;;;;;;;7.65;5.43;;;20.40;47.70;;;;;;5072607;27;20047;-78
2021/03/01 16:23:43;;;;;;;9.60;5.88;;;20.40;47.70;;;;;;5045390;28;20025;-77
2021/03/01 16:26:09;;;;;;;9.85;6.30;;;20.50;48.10;;;;;;5050421;28;20059;-77
2021/03/01 16:28:35;;;;;;;8.38;5.60;;;20.70;48.20;;;;;;5044368;28;20026;-77
2021/03/01 16:31:03;;;;;;;12.05;5.40;;;20.20;48.30;;;;;;5045110;28;20498;-76
2021/03/01 16:33:29;;;;;;;9.60;5.90;;;20.20;48.80;;;;;;5041976;28;20025;-77
2021/03/01 16:35:54;;;;;;;11.63;5.72;;;19.40;49.30;;;;;;5044551;28;20124;-78
2021/03/01 16:38:20;;;;;;;9.65;6.53;;;19.40;50.00;;;;;;5043864;28;20036;-78
2021/03/01 16:40:47;;;;;;;10.45;6.50;;;19.40;50.10;;;;;;5031169;28;20438;-79
2021/03/01 16:43:14;;;;;;;9.43;6.28;;;19.00;51.10;;;;;;5047296;28;20088;-78
2021/03/01 16:45:45;;;;;;;8.90;5.75;;;18.40;51.30;;;;;;5046646;28;20397;-80
2021/03/01 16:48:14;;;;;;;10.52;6.68;;;18.10;52.00;;;;;;5045190;28;20116;-77
2021/03/01 16:50:42;;;;;;;7.95;5.68;;;17.70;52.90;;;;;;5047510;28;20063;-78
2021/03/01 16:53:08;;;;;;;9.98;6.18;;;17.30;53.60;;;;;;5047268;28;20052;-79
2021/03/01 16:55:35;;;;;;;11.00;6.22;;;16.50;55.10;;;;;;5047280;28;20064;-78
2021/03/01 16:58:01;;;;;;;8.07;5.43;;;16.00;56.60;;;;;;5046437;28;20426;-78
2021/03/01 17:00:27;;;;;;;7.85;5.20;;;15.30;57.90;;;;;;5034698;28;20164;-77
2021/03/01 17:02:55;;;;;;;8.65;5.78;;;14.90;59.30;;;;;;5045859;28;20111;-76
2021/03/01 17:05:21;;;;;;;9.55;6.03;;;15.00;61.10;;;;;;5047662;28;20458;-76
2021/03/01 17:07:54;;;;;;;10.55;5.45;;;14.10;62.00;;;;;;5047997;28;20053;-77
2021/03/01 17:10:21;;;;;;;9.75;6.07;;;14.00;63.20;;;;;;5047844;28;20123;-76
2021/03/01 17:12:53;;;;;;;9.70;6.15;;;13.50;64.50;;;;;;5046409;28;20096;-76
2021/03/01 17:15:21;;;;;;;10.60;6.43;;;14.60;66.50;;;;;;5047599;28;20029;-75
2021/03/01 17:17:47;;;;;;;9.57;6.28;;;13.10;66.40;;;;;;5047739;28;20477;-76
2021/03/01 17:20:14;;;;;;;8.70;5.47;;;12.90;67.40;;;;;;5046592;28;20029;-76
2021/03/01 17:22:42;;;;;;;8.60;5.47;;;12.80;68.20;;;;;;5046696;28;20021;-76
2021/03/01 17:25:09;;;;;;;12.30;6.40;;;12.70;68.80;;;;;;5057051;28;20048;-76
2021/03/01 17:27:35;;;;;;;9.30;5.57;;;12.40;69.90;;;;;;5067730;28;20043;-76
2021/03/01 17:30:08;;;;;;;9.48;6.35;;;12.10;71.00;;;;;;5067833;28;20063;-76
2021/03/01 17:32:36;;;;;;;9.70;6.00;;;12.00;72.20;;;;;;5065493;27;20032;-77
2021/03/01 17:35:03;;;;;;;10.32;6.45;;;14.00;74.90;;;;;;5066108;27;20033;-77
2021/03/01 17:37:30;;;;;;;10.68;6.10;;;11.60;75.30;;;;;;5067466;28;20040;-76
2021/03/01 17:39:56;;;;;;;10.82;6.63;;;13.40;79.20;;;;;;5067234;28;20478;-76
2021/03/01 17:42:22;;;;;;;11.25;5.75;;;11.30;79.90;;;;;;5050957;28;20029;-76
2021/03/01 17:44:50;;;;;;;13.50;6.38;;;13.00;82.80;;;;;;5030737;28;20040;-76
2021/03/01 17:47:22;;;;;;;12.68;6.43;;;11.10;84.40;;;;;;5050754;28;20021;-76
2021/03/01 17:49:58;;;;;;;9.10;6.03;;;12.70;88.60;;;;;;5051172;28;20013;-79
2021/03/01 17:52:42;;;;;;;11.68;7.40;;;10.50;90.70;;;;;;5050497;28;20017;-78
2021/03/01 17:55:19;;;;;;;11.30;7.72;;;10.30;93.00;;;;;;5049124;28;20081;-77
2021/03/01 17:58:04;;;;;;;13.07;7.47;;;10.10;94.10;;;;;;5049307;28;20500;-76
2021/03/01 18:00:31;;;;;;;12.98;8.60;;;9.90;95.10;;;;;;5050565;28;20025;-77
2021/03/01 18:03:11;;;;;;;16.40;7.75;;;9.80;98.20;;;;;;5049141;28;20115;-76
2021/03/01 18:05:39;;;;;;;12.02;7.53;;;9.50;99.90;;;;;;5050414;28;20066;-77
2021/03/01 18:08:13;;;;;;;16.50;8.65;;;9.40;99.90;;;;;;5050541;28;20381;-76
2021/03/01 18:10:46;;;;;;;17.23;9.15;;;9.20;99.90;;;;;;5050661;28;20032;-76
2021/03/01 18:13:16;;;;;;;16.30;8.60;;;9.30;99.90;;;;;;5050232;28;20062;-78
2021/03/01 18:15:42;;;;;;;15.90;7.35;;;9.10;99.90;;;;;;5050951;28;20132;-79
2021/03/01 18:18:09;;;;;;;11.50;7.22;;;8.10;99.90;;;;;;5058685;28;20033;-80
2021/03/01 18:20:35;;;;;;;16.02;7.43;;;9.00;99.90;;;;;;5058866;28;20686;-79
2021/03/01 18:23:05;;;;;;;12.35;7.93;;;8.90;99.90;;;;;;5043042;28;20036;-76
2021/03/01 18:25:32;;;;;;;25.65;16.20;;;8.60;99.90;;;;;;5044384;27;20025;-77
2021/03/01 18:28:02;;;;;;;22.20;13.98;;;8.40;99.90;;;;;;5094560;27;20030;-77
2021/03/01 18:30:28;;;;;;;45.85;22.83;;;8.20;99.90;;;;;;5081522;27;20023;-76
2021/03/01 18:33:08;;;;;;;76.05;37.28;;;8.20;99.90;;;;;;5079529;27;20025;-78
2021/03/01 18:35:57;;;;;;;26.85;14.40;;;8.00;99.90;;;;;;5079581;27;20119;-78
2021/03/01 18:38:32;;;;;;;26.83;14.60;;;8.10;99.90;;;;;;5070668;28;20032;-79
2021/03/01 18:40:59;;;;;;;24.15;14.90;;;8.00;99.90;;;;;;5071115;28;20021;-79
2021/03/01 18:43:26;;;;;;;23.10;14.48;;;9.50;99.90;;;;;;5071267;28;20473;-79
2021/03/01 18:45:58;;;;;;;25.00;13.68;;;7.80;99.90;;;;;;5071950;28;20031;-79
2021/03/01 18:48:25;;;;;;;23.38;14.75;;;7.70;99.90;;;;;;5053292;28;20022;-78
2021/03/01 18:50:52;;;;;;;23.20;14.15;;;8.90;99.90;;;;;;5030635;28;20064;-78
2021/03/01 18:53:19;;;;;;;20.95;12.95;;;7.70;99.90;;;;;;5042617;28;20040;-79
